
Distance (Route):
Temperature : 18.6°C
Humidity : 61.8%
Pressure : 0hPa| Receiver | Date | Latitude | Longitude | Direction | Speed | Altitude | Climb | Temperature | Humidity | Pressure | Voltage | Killtimer | Uptime | BKT | XDATA |
|---|---|---|---|---|---|---|---|---|---|---|---|---|---|---|---|
| LZ4TU-5 | 2026-09-02 01:09:12 | 43.32624 | 22.89118 | 353° | 7km/h | 1260m | -12.8m/s | 18.6°C | 61.8% | 0hPa | 0V | 00:00:00 | 00:00:00 | 00:00:00 | |
| LZ4TU-5 | 2026-09-02 01:09:08 | 43.32617 | 22.89120 | 346° | 7km/h | 1314m | -12.7m/s | 18.1°C | 63.9% | 0hPa | 0V | 00:00:00 | 00:00:00 | 00:00:00 | |
| LZ4TU-5 | 2026-09-02 01:09:03 | 43.32608 | 22.89123 | 342° | 7km/h | 1380m | -12.7m/s | 17.5°C | 65.3% | 0hPa | 0V | 00:00:00 | 00:00:00 | 00:00:00 | |
| LZ4TU-5 | 2026-09-02 01:08:59 | 43.32598 | 22.89125 | 331° | 7km/h | 1431m | -12.9m/s | 17.1°C | 65.2% | 0hPa | 0V | 00:00:00 | 00:00:00 | 00:00:00 | |
| LZ4TU-5 | 2026-09-02 01:08:54 | 43.32590 | 22.89134 | 319° | 5km/h | 1498m | -13.2m/s | 16.8°C | 65.8% | 0hPa | 0V | 00:00:00 | 00:00:00 | 00:00:00 | |
| LZ4TU-5 | 2026-09-02 01:08:50 | 43.32587 | 22.89138 | 336° | 2km/h | 1549m | -13.5m/s | 16.7°C | 66.9% | 0hPa | 0V | 00:00:00 | 00:00:00 | 00:00:00 | |
| LZ4TU-5 | 2026-09-02 01:08:45 | 43.32587 | 22.89136 | 116° | 2km/h | 1611m | -13.2m/s | 16.2°C | 72.5% | 0hPa | 0V | 00:00:00 | 00:00:00 | 00:00:00 | |
| LZ4TU-5 | 2026-09-02 01:08:40 | 43.32589 | 22.89130 | 125° | 5km/h | 1681m | -13.3m/s | 16.1°C | 75.2% | 0hPa | 0V | 00:00:00 | 00:00:00 | 00:00:00 | |
| LZ4TU-5 | 2026-09-02 01:08:36 | 43.32593 | 22.89123 | 120° | 7km/h | 1737m | -13.4m/s | 15.6°C | 77.7% | 0hPa | 0V | 00:00:00 | 00:00:00 | 00:00:00 | |
| LZ4TU-5 | 2026-09-02 01:08:31 | 43.32598 | 22.89109 | 116° | 11km/h | 1808m | -13.3m/s | 15.2°C | 80.1% | 0hPa | 0V | 00:00:00 | 00:00:00 | 00:00:00 | |
| LZ4TU-5 | 2026-09-02 01:08:27 | 43.32602 | 22.89095 | 114° | 11km/h | 1862m | -13.4m/s | 14.8°C | 81.1% | 0hPa | 0V | 00:00:00 | 00:00:00 | 00:00:00 | |
| LZ4TU-5 | 2026-09-02 01:08:23 | 43.32609 | 22.89080 | 109° | 13km/h | 1908m | -13.3m/s | 14.3°C | 81.8% | 0hPa | 0V | 00:00:00 | 00:00:00 | 00:00:00 | |
| LZ4TU-5 | 2026-09-02 01:08:18 | 43.32615 | 22.89056 | 103° | 16km/h | 1977m | -13.4m/s | 14.0°C | 81.8% | 0hPa | 0V | 00:00:00 | 00:00:00 | 00:00:00 | |
| LZ4TU-5 | 2026-09-02 01:08:13 | 43.32619 | 22.89029 | 94° | 16km/h | 2046m | -13.6m/s | 13.8°C | 79.9% | 0hPa | 0V | 00:00:00 | 00:00:00 | 00:00:00 | |
| LZ4TU-5 | 2026-09-02 01:08:08 | 43.32618 | 22.88997 | 83° | 16km/h | 2106m | -14.3m/s | 13.3°C | 80.5% | 0hPa | 0V | 00:00:00 | 00:00:00 | 00:00:00 | |
| LZ4TU-5 | 2026-09-02 01:08:00 | 43.32610 | 22.88947 | 82° | 16km/h | 2215m | -13.5m/s | 12.4°C | 83.5% | 0hPa | 0V | 00:00:00 | 00:00:00 | 00:00:00 | |
| LZ4TU-5 | 2026-09-02 01:07:55 | 43.32606 | 22.88918 | 81° | 18km/h | 2285m | -13.4m/s | 11.8°C | 83.8% | 0hPa | 0V | 00:00:00 | 00:00:00 | 00:00:00 | |
| LZ4TU-5 | 2026-09-02 01:07:51 | 43.32603 | 22.88893 | 77° | 18km/h | 2341m | -13.5m/s | 11.7°C | 76.3% | 0hPa | 0V | 00:00:00 | 00:00:00 | 00:00:00 | |
| LZ4TU-5 | 2026-09-02 01:07:46 | 43.32596 | 22.88863 | 75° | 18km/h | 2411m | -13.5m/s | 11.3°C | 73.4% | 0hPa | 0V | 00:00:00 | 00:00:00 | 00:00:00 | |
| LZ4TU-5 | 2026-09-02 01:07:42 | 43.32590 | 22.88838 | 78° | 18km/h | 2467m | -13.7m/s | 10.8°C | 74.3% | 0hPa | 0V | 00:00:00 | 00:00:00 | 00:00:00 | |
| LZ4TU-5 | 2026-09-02 01:07:37 | 43.32586 | 22.88808 | 82° | 16km/h | 2532m | -13.4m/s | 10.3°C | 72.1% | 0hPa | 0V | 00:00:00 | 00:00:00 | 00:00:00 | |
| LZ4TU-5 | 2026-09-02 01:07:33 | 43.32584 | 22.88782 | 89° | 18km/h | 2581m | -13.6m/s | 9.9°C | 70.8% | 0hPa | 0V | 00:00:00 | 00:00:00 | 00:00:00 | |
| LZ4TU-5 | 2026-09-02 01:07:28 | 43.32583 | 22.88749 | 96° | 20km/h | 2653m | -13.4m/s | 9.4°C | 69.1% | 0hPa | 0V | 00:00:00 | 00:00:00 | 00:00:00 | |
| LZ4TU-5 | 2026-09-02 01:07:24 | 43.32584 | 22.88720 | 98° | 20km/h | 2711m | -13.7m/s | 9.3°C | 60.9% | 0hPa | 0V | 00:00:00 | 00:00:00 | 00:00:00 | |
| LZ4TU-5 | 2026-09-02 01:07:19 | 43.32587 | 22.88686 | 109° | 18km/h | 2782m | -13.5m/s | 9.2°C | 49.0% | 0hPa | 0V | 00:00:00 | 00:00:00 | 00:00:00 | |
| LZ4TU-5 | 2026-09-02 01:07:15 | 43.32597 | 22.88664 | 118° | 18km/h | 2836m | -13.4m/s | 8.9°C | 44.2% | 0hPa | 0V | 00:00:00 | 00:00:00 | 00:00:00 | |
| LZ4TU-5 | 2026-09-02 01:07:11 | 43.32612 | 22.88636 | 123° | 18km/h | 2900m | -13.8m/s | 8.2°C | 45.4% | 0hPa | 0V | 00:00:00 | 00:00:00 | 00:00:00 | |
| LZ4TU-5 | 2026-09-02 01:07:05 | 43.32623 | 22.88609 | 120° | 18km/h | 2975m | -14.1m/s | 7.7°C | 43.8% | 0hPa | 0V | 00:00:00 | 00:00:00 | 00:00:00 | |
| LZ4TU-5 | 2026-09-02 01:07:00 | 43.32635 | 22.88581 | 120° | 20km/h | 3052m | -14.6m/s | 7.0°C | 43.4% | 0hPa | 0V | 00:00:00 | 00:00:00 | 00:00:00 | |
| LZ4TU-5 | 2026-09-02 01:06:55 | 43.32653 | 22.88551 | 119° | 26km/h | 3126m | -14.5m/s | 6.7°C | 40.4% | 0hPa | 0V | 00:00:00 | 00:00:00 | 00:00:00 | |
| LZ4TU-5 | 2026-09-02 01:06:51 | 43.32666 | 22.88514 | 121° | 31km/h | 3177m | -14.1m/s | 6.4°C | 38.2% | 0hPa | 0V | 00:00:00 | 00:00:00 | 00:00:00 | |
| LZ4TU-5 | 2026-09-02 01:06:48 | 43.32682 | 22.88474 | 122° | 37km/h | 3236m | -14.1m/s | 6.1°C | 35.4% | 0hPa | 0V | 00:00:00 | 00:00:00 | 00:00:00 | |
| LZ4TU-5 | 2026-09-02 01:06:42 | 43.32708 | 22.88419 | 118° | 40km/h | 3310m | -14.3m/s | 5.7°C | 31.9% | 0hPa | 0V | 00:00:00 | 00:00:00 | 00:00:00 | |
| LZ4TU-5 | 2026-09-02 01:06:38 | 43.32729 | 22.88367 | 119° | 46km/h | 3365m | -14.3m/s | 5.7°C | 33.6% | 0hPa | 0V | 00:00:00 | 00:00:00 | 00:00:00 | |
| LZ4TU-5 | 2026-09-02 01:06:33 | 43.32756 | 22.88290 | 112° | 51km/h | 3426m | -14.5m/s | 4.9°C | 61.1% | 0hPa | 0V | 00:00:00 | 00:00:00 | 00:00:00 | |
| LZ4TU-5 | 2026-09-02 01:06:29 | 43.32773 | 22.88226 | 111° | 49km/h | 3486m | -15.1m/s | 4.3°C | 72.4% | 0hPa | 0V | 00:00:00 | 00:00:00 | 00:00:00 | |
| LZ4TU-5 | 2026-09-02 01:06:24 | 43.32791 | 22.88145 | 104° | 49km/h | 3564m | -15.0m/s | 3.8°C | 84.2% | 0hPa | 0V | 00:00:00 | 00:00:00 | 00:00:00 | |
| LZ4TU-5 | 2026-09-02 01:06:20 | 43.32801 | 22.88077 | 101° | 49km/h | 3627m | -14.8m/s | 3.4°C | 84.3% | 0hPa | 0V | 00:00:00 | 00:00:00 | 00:00:00 | |
| LZ4TU-5 | 2026-09-02 01:06:16 | 43.32808 | 22.87993 | 97° | 47km/h | 3705m | -14.9m/s | 2.7°C | 90.9% | 0hPa | 0V | 00:00:00 | 00:00:00 | 00:00:00 | |
| LZ4TU-5 | 2026-09-02 01:06:10 | 43.32813 | 22.87907 | 95° | 51km/h | 3781m | -14.6m/s | 2.1°C | 91.6% | 0hPa | 0V | 00:00:00 | 00:00:00 | 00:00:00 | |
| LZ4TU-5 | 2026-09-02 01:06:06 | 43.32815 | 22.87817 | 93° | 51km/h | 3849m | -15.0m/s | 1.5°C | 92.0% | 0hPa | 0V | 00:00:00 | 00:00:00 | 00:00:00 | |
| LZ4TU-5 | 2026-09-02 01:06:01 | 43.32816 | 22.87727 | 91° | 51km/h | 3916m | -15.0m/s | 1.0°C | 90.9% | 0hPa | 0V | 00:00:00 | 00:00:00 | 00:00:00 | |
| LZ4TU-5 | 2026-09-02 01:05:56 | 43.32813 | 22.87635 | 88° | 53km/h | 3997m | -14.7m/s | 0.6°C | 86.0% | 0hPa | 0V | 00:00:00 | 00:00:00 | 00:00:00 | |
| LZ4TU-5 | 2026-09-02 01:05:50 | 43.32805 | 22.87543 | 86° | 53km/h | 4078m | -14.8m/s | -0.1°C | 88.2% | 0hPa | 0V | 00:00:00 | 00:00:00 | 00:00:00 | |
| LZ4TU-5 | 2026-09-02 01:05:45 | 43.32796 | 22.87451 | 84° | 53km/h | 4157m | -15.6m/s | -0.7°C | 89.6% | 0hPa | 0V | 00:00:00 | 00:00:00 | 00:00:00 | |
| LZ4TU-5 | 2026-09-02 01:05:41 | 43.32792 | 22.87364 | 86° | 51km/h | 4235m | -15.0m/s | -1.3°C | 87.0% | 0hPa | 0V | 00:00:00 | 00:00:00 | 00:00:00 | |
| LZ4TU-5 | 2026-09-02 01:05:37 | 43.32790 | 22.87293 | 87° | 53km/h | 4298m | -15.6m/s | -1.9°C | 84.8% | 0hPa | 0V | 00:00:00 | 00:00:00 | 00:00:00 | |
| LZ4TU-5 | 2026-09-02 01:05:31 | 43.32787 | 22.87203 | 93° | 53km/h | 4373m | -16.1m/s | -1.8°C | 69.6% | 0hPa | 0V | 00:00:00 | 00:00:00 | 00:00:00 | |
| LZ4TU-5 | 2026-09-02 01:05:26 | 43.32796 | 22.87118 | 96° | 49km/h | 4431m | -15.4m/s | -1.7°C | 52.1% | 0hPa | 0V | 00:00:00 | 00:00:00 | 00:00:00 | |
| LZ4TU-5 | 2026-09-02 01:05:21 | 43.32803 | 22.87036 | 99° | 47km/h | 4510m | -15.5m/s | -1.4°C | 27.3% | 0hPa | 0V | 00:00:00 | 00:00:00 | 00:00:00 | |
| LZ4TU-5 | 2026-09-02 01:05:16 | 43.32812 | 22.86957 | 102° | 47km/h | 4591m | -16.2m/s | -1.9°C | 19.6% | 0hPa | 0V | 00:00:00 | 00:00:00 | 00:00:00 | |
| LZ4TU-5 | 2026-09-02 01:05:11 | 43.32821 | 22.86880 | 100° | 44km/h | 4673m | -15.4m/s | -2.0°C | 13.0% | 0hPa | 0V | 00:00:00 | 00:00:00 | 00:00:00 | |
| LZ4TU-5 | 2026-09-02 01:05:02 | 43.32840 | 22.86746 | 105° | 44km/h | 4817m | -15.2m/s | -2.5°C | 12.4% | 0hPa | 0V | 00:00:00 | 00:00:00 | 00:00:00 | |
| LZ4TU-5 | 2026-09-02 01:01:42 | 43.33565 | 22.82847 | 103° | 80km/h | 8285m | -18.8m/s | -26.3°C | 23.5% | 0hPa | 0V | 00:00:00 | 00:00:00 | 00:00:00 | |
| LZ4TU-5 | 2026-09-02 01:01:37 | 43.33584 | 22.82709 | 102° | 80km/h | 8373m | -18.9m/s | -27.1°C | 22.0% | 0hPa | 0V | 00:00:00 | 00:00:00 | 00:00:00 | |
| LZ4TU-5 | 2026-09-02 00:59:13 | 43.33727 | 22.77997 | 88° | 115km/h | 11231m | -21.0m/s | -48.6°C | 39.4% | 0hPa | 0V | 00:00:00 | 00:00:00 | 00:00:00 | |
| LZ4TU-5 | 2026-09-02 00:59:09 | 43.33724 | 22.77838 | 87° | 115km/h | 11300m | -21.2m/s | -49.1°C | 38.1% | 0hPa | 0V | 00:00:00 | 00:00:00 | 00:00:00 | |
| LZ4TU-5 | 2026-09-02 00:57:10 | 43.33114 | 22.73237 | 80° | 100km/h | 14095m | -26.3m/s | -60.8°C | 1.9% | 0hPa | 0V | 00:00:00 | 00:00:00 | 00:00:00 | |
| LZ4TU-5 | 2026-09-02 00:57:05 | 43.33090 | 22.73055 | 81° | 99km/h | 14224m | -26.3m/s | -60.3°C | 1.3% | 0hPa | 0V | 00:00:00 | 00:00:00 | 00:00:00 | |
| LZ4TU-5 | 2026-09-02 00:56:56 | 43.33056 | 22.72756 | 84° | 100km/h | 14459m | -27.0m/s | -59.8°C | 0.6% | 0hPa | 0V | 00:00:00 | 00:00:00 | 00:00:00 | |
| LZ4TU-5 | 2026-09-02 00:56:51 | 43.33041 | 22.72578 | 84° | 93km/h | 14588m | -26.0m/s | -59.8°C | 0.3% | 0hPa | 0V | 00:00:00 | 00:00:00 | 00:00:00 | |
| LZ4TU-5 | 2026-09-02 00:56:36 | 43.33013 | 22.72130 | 89° | 82km/h | 14986m | -25.2m/s | -59.2°C | 0.0% | 0hPa | 0V | 00:00:00 | 00:00:00 | 00:00:00 | |
| LZ4TU-5 | 2026-09-02 00:54:37 | 43.33014 | 22.69956 | 131° | 16km/h | 18368m | -31.6m/s | -58.8°C | 0.0% | 0hPa | 0V | 00:00:00 | 00:00:00 | 00:00:00 | |
| LZ4TU-5 | 2026-09-02 00:54:33 | 43.33023 | 22.69946 | 125° | 9km/h | 18503m | -31.6m/s | -58.0°C | 0.0% | 0hPa | 0V | 00:00:00 | 00:00:00 | 00:00:00 | |
| LZ4TU-5 | 2026-09-02 00:50:13 | 43.32860 | 22.69546 | 312° | 31km/h | 31011m | -52.9m/s | -41.8°C | 0.0% | 0hPa | 0V | 00:00:00 | 00:00:00 | 00:00:00 | |
| LZ4TU-5 | 2026-09-02 00:50:09 | 43.32859 | 22.69527 | 329° | 37km/h | 31221m | -17.1m/s | -42.6°C | 0.0% | 0hPa | 0V | 00:00:00 | 00:00:00 | 00:00:00 | |
| LZ4TU-5 | 2026-09-02 00:50:03 | 43.32845 | 22.69565 | 290° | 18km/h | 31210m | 5.3m/s | -42.6°C | 0.0% | 0hPa | 0V | 00:00:00 | 00:00:00 | 00:00:00 | |
| LZ4TU-5 | 2026-09-02 00:48:06 | 43.32686 | 22.70235 | 284° | 35km/h | 30454m | 6.9m/s | -43.9°C | 0.0% | 0hPa | 0V | 00:00:00 | 00:00:00 | 00:00:00 | |
| LZ4TU-5 | 2026-09-02 00:48:01 | 43.32695 | 22.70254 | 128° | 16km/h | 30424m | 7.4m/s | -43.9°C | 0.0% | 0hPa | 0V | 00:00:00 | 00:00:00 | 00:00:00 | |
| LZ4TU-5 | 2026-09-02 00:46:27 | 43.32497 | 22.70720 | 85° | 13km/h | 29810m | 5.6m/s | -44.9°C | 0.0% | 0hPa | 0V | 00:00:00 | 00:00:00 | 00:00:00 | |
| LZ4TU-5 | 2026-09-02 00:46:22 | 43.32503 | 22.70739 | 254° | 29km/h | 29781m | 5.8m/s | -45.0°C | 0.0% | 0hPa | 0V | 00:00:00 | 00:00:00 | 00:00:00 | |
| LZ4TU-5 | 2026-09-02 00:39:49 | 43.32337 | 22.71718 | 166° | 11km/h | 27259m | 6.2m/s | -49.2°C | 0.0% | 0hPa | 0V | 00:00:00 | 00:00:00 | 00:00:00 | |
| LZ4TU-5 | 2026-09-02 00:39:45 | 43.32347 | 22.71708 | 132° | 22km/h | 27229m | 5.7m/s | -49.2°C | 0.0% | 0hPa | 0V | 00:00:00 | 00:00:00 | 00:00:00 | |
| LZ4TU-5 | 2026-09-02 00:38:12 | 43.32232 | 22.71549 | 0° | 0km/h | 26649m | 6.4m/s | -49.5°C | 0.0% | 0hPa | 0V | 00:00:00 | 00:00:00 | 00:00:00 | |
| LZ4TU-5 | 2026-09-02 00:38:07 | 43.32226 | 22.71571 | 294° | 29km/h | 26615m | 7.5m/s | -49.4°C | 0.0% | 0hPa | 0V | 00:00:00 | 00:00:00 | 00:00:00 | |
| LZ4TU-5 | 2026-09-02 00:36:11 | 43.32250 | 22.71873 | 176° | 16km/h | 25860m | 5.4m/s | -50.0°C | 0.0% | 0hPa | 0V | 00:00:00 | 00:00:00 | 00:00:00 | |
| LZ4TU-5 | 2026-09-02 00:36:06 | 43.32279 | 22.71855 | 171° | 33km/h | 25829m | 6.5m/s | -50.1°C | 0.0% | 0hPa | 0V | 00:00:00 | 00:00:00 | 00:00:00 | |
| LZ4TU-5 | 2026-09-02 00:36:01 | 43.32309 | 22.71875 | 210° | 24km/h | 25800m | 3.7m/s | -50.1°C | 0.0% | 0hPa | 0V | 00:00:00 | 00:00:00 | 00:00:00 | |
| LZ4TU-5 | 2026-09-02 00:34:19 | 43.32339 | 22.71622 | 56° | 11km/h | 25187m | 6.0m/s | -51.6°C | 0.0% | 0hPa | 0V | 00:00:00 | 00:00:00 | 00:00:00 | |
| LZ4TU-5 | 2026-09-02 00:34:15 | 43.32314 | 22.71615 | 334° | 18km/h | 25157m | 6.8m/s | -51.6°C | 0% | 0hPa | 0V | 00:00:00 | 00:00:00 | 00:00:00 | |
| LZ4TU-5 | 2026-09-02 00:32:41 | 43.32166 | 22.71902 | 322° | 11km/h | 24573m | 6.3m/s | -51.4°C | 0.0% | 0hPa | 0V | 00:00:00 | 00:00:00 | 00:00:00 | |
| LZ4TU-5 | 2026-09-02 00:32:35 | 43.32165 | 22.71923 | 277° | 15km/h | 24541m | 6.7m/s | -51.6°C | 0.0% | 0hPa | 0V | 00:00:00 | 00:00:00 | 00:00:00 | |
| LZ4TU-5 | 2026-09-02 00:30:56 | 43.32123 | 22.71938 | 208° | 13km/h | 23930m | 5.5m/s | -51.9°C | 0.0% | 0hPa | 0V | 00:00:00 | 00:00:00 | 00:00:00 | |
| LZ4TU-5 | 2026-09-02 00:29:28 | 43.32038 | 22.71844 | 323° | 11km/h | 23406m | 5.7m/s | -53.7°C | 0.0% | 0hPa | 0V | 00:00:00 | 00:00:00 | 00:00:00 | |
| LZ4TU-5 | 2026-09-02 00:29:23 | 43.32034 | 22.71873 | 255° | 20km/h | 23377m | 5.8m/s | -53.7°C | 0.0% | 0hPa | 0V | 00:00:00 | 00:00:00 | 00:00:00 | |
| LZ4TU-5 | 2026-09-02 00:27:48 | 43.32155 | 22.72014 | 215° | 9km/h | 22845m | 4.7m/s | -54.2°C | 0.0% | 0hPa | 0V | 00:00:00 | 00:00:00 | 00:00:00 | |
| LZ4TU-5 | 2026-09-02 00:27:44 | 43.32170 | 22.72013 | 161° | 24km/h | 22824m | 3.8m/s | -54.3°C | 0.0% | 0hPa | 0V | 00:00:00 | 00:00:00 | 00:00:00 | |
| LZ4TU-5 | 2026-09-02 00:26:03 | 43.32505 | 22.71878 | 172° | 13km/h | 22227m | 7.2m/s | -54.5°C | 0.0% | 0hPa | 0V | 00:00:00 | 00:00:00 | 00:00:00 | |
| LZ4TU-5 | 2026-09-02 00:25:58 | 43.32516 | 22.71878 | 228° | 20km/h | 22197m | 6.2m/s | -54.5°C | 0.0% | 0hPa | 0V | 00:00:00 | 00:00:00 | 00:00:00 | |
| LZ4TU-5 | 2026-09-02 00:24:24 | 43.32656 | 22.71460 | 82° | 20km/h | 21644m | 4.7m/s | -56.0°C | 0.0% | 0hPa | 0V | 00:00:00 | 00:00:00 | 00:00:00 | |
| LZ4TU-5 | 2026-09-02 00:24:19 | 43.32640 | 22.71436 | 47° | 31km/h | 21615m | 4.8m/s | -56.0°C | 0.0% | 0hPa | 0V | 00:00:00 | 00:00:00 | 00:00:00 | |
| LZ4TU-5 | 2026-09-02 00:22:45 | 43.32185 | 22.71076 | 24° | 16km/h | 21087m | 5.3m/s | -56.4°C | 0.0% | 0hPa | 0V | 00:00:00 | 00:00:00 | 00:00:00 | |
| LZ4TU-5 | 2026-09-02 00:22:40 | 43.32159 | 22.71058 | 15° | 31km/h | 21060m | 5.1m/s | -56.4°C | 0.0% | 0hPa | 0V | 00:00:00 | 00:00:00 | 00:00:00 | |
| LZ4TU-5 | 2026-09-02 00:21:06 | 43.31827 | 22.70772 | 36° | 5km/h | 20512m | 6.1m/s | -57.1°C | 0.2% | 0hPa | 0V | 00:00:00 | 00:00:00 | 00:00:00 | |
| LZ4TU-5 | 2026-09-02 00:21:01 | 43.31820 | 22.70769 | 41° | 5km/h | 20481m | 6.7m/s | -57.1°C | 0.2% | 0hPa | 0V | 00:00:00 | 00:00:00 | 00:00:00 | |
| LZ4TU-5 | 2026-09-02 00:19:24 | 43.31659 | 22.70258 | 1° | 24km/h | 19931m | 4.6m/s | -55.9°C | 0.5% | 0hPa | 0V | 00:00:00 | 00:00:00 | 00:00:00 | |
| LZ4TU-5 | 2026-09-02 00:19:20 | 43.31646 | 22.70263 | 0° | 0km/h | 19909m | 6.8m/s | -55.7°C | 0.4% | 0hPa | 0V | 00:00:00 | 00:00:00 | 00:00:00 | |
| LZ4TU-5 | 2026-09-02 00:17:47 | 43.31639 | 22.69615 | 77° | 38km/h | 19411m | 5.4m/s | -57.9°C | 0.6% | 0hPa | 0V | 00:00:00 | 00:00:00 | 00:00:00 | |
| LZ4TU-5 | 2026-09-02 00:17:41 | 43.31633 | 22.69564 | 91° | 15km/h | 19384m | 5.0m/s | -57.7°C | 0.5% | 0hPa | 0V | 00:00:00 | 00:00:00 | 00:00:00 | |
| LZ4TU-5 | 2026-09-02 00:16:08 | 43.31479 | 22.68804 | 44° | 15km/h | 18881m | 4.1m/s | -57.6°C | 1.2% | 0hPa | 0V | 00:00:00 | 00:00:00 | 00:00:00 | |
| LZ4TU-5 | 2026-09-02 00:16:03 | 43.31455 | 22.68774 | 52° | 29km/h | 18852m | 4.5m/s | -57.3°C | 1.1% | 0hPa | 0V | 00:00:00 | 00:00:00 | 00:00:00 | |
| LZ3DJ-16 | 2026-09-02 00:15:10 | 43.31252 | 22.68500 | 110° | 9km/h | 18565m | 5.5m/s | -57.2°C | 1.2% | 0hPa | 0V | 00:00:00 | 00:00:00 | 00:00:00 | |
| LZ3DJ-16 | 2026-09-02 00:14:48 | 43.31263 | 22.68419 | 208° | 7km/h | 18451m | 4.3m/s | -57.9°C | 1.3% | 0hPa | 0V | 00:00:00 | 00:00:00 | 00:00:00 | |
| LZ4TU-5 | 2026-09-02 00:14:19 | 43.31392 | 22.68284 | 160° | 13km/h | 18298m | 5.1m/s | -58.5°C | 1.7% | 0hPa | 0V | 00:00:00 | 00:00:00 | 00:00:00 | |
| LZ4TU-5 | 2026-09-02 00:14:15 | 43.31412 | 22.68251 | 113° | 33km/h | 18272m | 5.1m/s | -58.4°C | 1.7% | 0hPa | 0V | 00:00:00 | 00:00:00 | 00:00:00 | |
| LZ3DJ-16 | 2026-09-02 00:13:54 | 43.31460 | 22.68096 | 89° | 20km/h | 18165m | 5.8m/s | -57.9°C | 1.6% | 0hPa | 0V | 00:00:00 | 00:00:00 | 00:00:00 | |
| LZ4TU-5 | 2026-09-02 00:12:25 | 43.31476 | 22.67200 | 83° | 22km/h | 17681m | 6.7m/s | -58.6°C | 2.7% | 0hPa | 0V | 00:00:00 | 00:00:00 | 00:00:00 | |
| LZ4TU-5 | 2026-09-02 00:12:21 | 43.31475 | 22.67167 | 115° | 22km/h | 17658m | 4.6m/s | -58.5°C | 2.7% | 0hPa | 0V | 00:00:00 | 00:00:00 | 00:00:00 | |
| LZ4TU-5 | 2026-09-02 00:10:31 | 43.31976 | 22.65561 | 84° | 69km/h | 17053m | 5.8m/s | -59.1°C | 3.6% | 0hPa | 0V | 00:00:00 | 00:00:00 | 00:00:00 | |
| LZ4TU-5 | 2026-09-02 00:10:27 | 43.31964 | 22.65454 | 83° | 71km/h | 17032m | 5.3m/s | -59.2°C | 3.6% | 0hPa | 0V | 00:00:00 | 00:00:00 | 00:00:00 | |
| LZ4TU-5 | 2026-09-02 00:08:43 | 43.31590 | 22.63339 | 73° | 44km/h | 16509m | 6.0m/s | -61.1°C | 0% | 0hPa | 0V | 00:00:00 | 00:00:00 | 00:00:00 | |
| LZ4TU-5 | 2026-09-02 00:06:50 | 43.31337 | 22.61512 | 98° | 66km/h | 15920m | 6.8m/s | -60.5°C | 5.9% | 0hPa | 0V | 00:00:00 | 00:00:00 | 00:00:00 | |
| LZ4TU-5 | 2026-09-02 00:06:46 | 43.31341 | 22.61408 | 99° | 49km/h | 15892m | 6.8m/s | -60.3°C | 5.9% | 0hPa | 0V | 00:00:00 | 00:00:00 | 00:00:00 | |
| LZ4TU-5 | 2026-09-02 00:06:40 | 43.31365 | 22.61323 | 105° | 55km/h | 15865m | 5.1m/s | -60.1°C | 6.0% | 0hPa | 0V | 00:00:00 | 00:00:00 | 00:00:00 | |
| LZ4TU-5 | 2026-09-02 00:05:07 | 43.31611 | 22.58981 | 91° | 80km/h | 15395m | 5.3m/s | -59.5°C | 8.2% | 0hPa | 0V | 00:00:00 | 00:00:00 | 00:00:00 | |
| LZ4TU-5 | 2026-09-02 00:05:00 | 43.31604 | 22.58837 | 87° | 75km/h | 15371m | 4.4m/s | -59.4°C | 8.3% | 0hPa | 0V | 00:00:00 | 00:00:00 | 00:00:00 | |
| LZ4TU-5 | 2026-09-02 00:03:28 | 43.31338 | 22.56255 | 84° | 88km/h | 14901m | 4.1m/s | -60.5°C | 11.8% | 0hPa | 0V | 00:00:00 | 00:00:00 | 00:00:00 | |
| LZ4TU-5 | 2026-09-02 00:03:23 | 43.31327 | 22.56110 | 84° | 80km/h | 14878m | 5.0m/s | -60.5°C | 12.0% | 0hPa | 0V | 00:00:00 | 00:00:00 | 00:00:00 | |
| LZ4TU-5 | 2026-09-02 00:01:29 | 43.31060 | 22.52557 | 82° | 97km/h | 14321m | 4.7m/s | -60.6°C | 17.5% | 0hPa | 0V | 00:00:00 | 00:00:00 | 00:00:00 | |
| LZ4TU-5 | 2026-09-02 00:01:24 | 43.31038 | 22.52399 | 80° | 91km/h | 14298m | 3.8m/s | -60.8°C | 17.8% | 0hPa | 0V | 00:00:00 | 00:00:00 | 00:00:00 | |
| LZ4TU-5 | 2026-09-01 23:58:30 | 43.30318 | 22.46642 | 90° | 115km/h | 13463m | 7.5m/s | -59.0°C | 21.1% | 0hPa | 0V | 00:00:00 | 00:00:00 | 00:00:00 | |
| LZ4TU-5 | 2026-09-01 23:58:26 | 43.30320 | 22.46494 | 89° | 95km/h | 13431m | 7.1m/s | -58.8°C | 21.2% | 0hPa | 0V | 00:00:00 | 00:00:00 | 00:00:00 | |
| LZ4TU-5 | 2026-09-01 23:56:47 | 43.29675 | 22.42762 | 77° | 119km/h | 12934m | 5.7m/s | -58.0°C | 22.3% | 0hPa | 0V | 00:00:00 | 00:00:00 | 00:00:00 | |
| LZ4TU-5 | 2026-09-01 23:56:42 | 43.29634 | 22.42569 | 75° | 115km/h | 12908m | 5.4m/s | -57.8°C | 22.5% | 0hPa | 0V | 00:00:00 | 00:00:00 | 00:00:00 | |
| LZ4TU-5 | 2026-09-01 23:55:04 | 43.28990 | 22.38761 | 80° | 115km/h | 12398m | 6.1m/s | -55.4°C | 29.9% | 0hPa | 0V | 00:00:00 | 00:00:00 | 00:00:00 | |
| LZ4TU-5 | 2026-09-01 23:55:00 | 43.28968 | 22.38596 | 81° | 119km/h | 12375m | 6.1m/s | -55.3°C | 30.1% | 0hPa | 0V | 00:00:00 | 00:00:00 | 00:00:00 | |
| LZ4TU-5 | 2026-09-01 23:53:19 | 43.28584 | 22.34817 | 82° | 106km/h | 11874m | 3.5m/s | -52.6°C | 44.3% | 0hPa | 0V | 00:00:00 | 00:00:00 | 00:00:00 | |
| LZ4TU-5 | 2026-09-01 23:53:14 | 43.28565 | 22.34618 | 83° | 115km/h | 11852m | 3.6m/s | -52.4°C | 45.3% | 0hPa | 0V | 00:00:00 | 00:00:00 | 00:00:00 | |
| LZ4TU-5 | 2026-09-01 23:51:35 | 43.28307 | 22.30806 | 93° | 117km/h | 11375m | 4.5m/s | -49.4°C | 36.1% | 0hPa | 0V | 00:00:00 | 00:00:00 | 00:00:00 | |
| LZ4TU-5 | 2026-09-01 23:51:30 | 43.28305 | 22.30617 | 88° | 108km/h | 11352m | 3.7m/s | -49.2°C | 35.4% | 0hPa | 0V | 00:00:00 | 00:00:00 | 00:00:00 | |
| LZ4TU-5 | 2026-09-01 23:49:37 | 43.27932 | 22.26166 | 80° | 104km/h | 10828m | 6.4m/s | -45.4°C | 22.8% | 0hPa | 0V | 00:00:00 | 00:00:00 | 00:00:00 | |
| LZ4TU-5 | 2026-09-01 23:49:33 | 43.27898 | 22.26024 | 74° | 111km/h | 10807m | 4.0m/s | -45.4°C | 22.6% | 0hPa | 0V | 00:00:00 | 00:00:00 | 00:00:00 | |
| LZ4TU-5 | 2026-09-01 23:47:55 | 43.27802 | 22.22687 | 84° | 100km/h | 10267m | 5.8m/s | -41.5°C | 21.8% | 0hPa | 0V | 00:00:00 | 00:00:00 | 00:00:00 | |
| LZ4TU-5 | 2026-09-01 23:47:50 | 43.27802 | 22.22498 | 96° | 104km/h | 10241m | 4.0m/s | -41.2°C | 21.3% | 0hPa | 0V | 00:00:00 | 00:00:00 | 00:00:00 | |
| LZ4TU-5 | 2026-09-01 23:46:12 | 43.27904 | 22.19071 | 100° | 100km/h | 9727m | 4.6m/s | -37.4°C | 17.7% | 0hPa | 0V | 00:00:00 | 00:00:00 | 00:00:00 | |
| LZ4TU-5 | 2026-09-01 23:46:07 | 43.27921 | 22.18881 | 94° | 115km/h | 9704m | 5.1m/s | -37.2°C | 17.4% | 0hPa | 0V | 00:00:00 | 00:00:00 | 00:00:00 | |
| LZ4TU-5 | 2026-09-01 23:44:28 | 43.28096 | 22.15372 | 91° | 88km/h | 9225m | 4.6m/s | -33.5°C | 15.5% | 0hPa | 0V | 00:00:00 | 00:00:00 | 00:00:00 | |
| LZ4TU-5 | 2026-09-01 23:44:24 | 43.28101 | 22.15240 | 100° | 99km/h | 9206m | 5.5m/s | -33.3°C | 15.3% | 0hPa | 0V | 00:00:00 | 00:00:00 | 00:00:00 | |
| LZ4TU-5 | 2026-09-01 23:44:13 | 43.28128 | 22.14876 | 100° | 99km/h | 9159m | 2.9m/s | -32.9°C | 14.9% | 0hPa | 0V | 00:00:00 | 00:00:00 | 00:00:00 | |
| LZ4TU-5 | 2026-09-01 23:44:07 | 43.28138 | 22.14664 | 92° | 89km/h | 9130m | 4.3m/s | -32.7°C | 14.7% | 0hPa | 0V | 00:00:00 | 00:00:00 | 00:00:00 | |
| LZ4TU-5 | 2026-09-01 23:42:44 | 43.28347 | 22.12036 | 95° | 84km/h | 8741m | 3.9m/s | -30.0°C | 11.5% | 0hPa | 0V | 00:00:00 | 00:00:00 | 00:00:00 | |
| LZ4TU-5 | 2026-09-01 23:42:39 | 43.28366 | 22.11919 | 106° | 91km/h | 8722m | 4.3m/s | -29.8°C | 11.5% | 0hPa | 0V | 00:00:00 | 00:00:00 | 00:00:00 | |
| LZ4TU-5 | 2026-09-01 23:41:15 | 43.28676 | 22.09504 | 100° | 75km/h | 8301m | 4.9m/s | -27.2°C | 18.1% | 0hPa | 0V | 00:00:00 | 00:00:00 | 00:00:00 | |
| LZ4TU-5 | 2026-09-01 23:41:10 | 43.28699 | 22.09361 | 109° | 82km/h | 8278m | 4.4m/s | -27.0°C | 0% | 0hPa | 0V | 00:00:00 | 00:00:00 | 00:00:00 | |
| LZ4TU-5 | 2026-09-01 23:39:45 | 43.29043 | 22.07150 | 116° | 64km/h | 7850m | 5.5m/s | -24.2°C | 75.6% | 0hPa | 0V | 00:00:00 | 00:00:00 | 00:00:00 | |
| LZ4TU-5 | 2026-09-01 23:39:41 | 43.29067 | 22.07054 | 99° | 78km/h | 7832m | 4.6m/s | -24.0°C | 23.3% | 0hPa | 0V | 00:00:00 | 00:00:00 | 00:00:00 | |
| LZ4TU-5 | 2026-09-01 23:38:07 | 43.29433 | 22.04844 | 107° | 86km/h | 7367m | 8.1m/s | -20.9°C | 27.3% | 0hPa | 0V | 00:00:00 | 00:00:00 | 00:00:00 | |
| LZ4TU-5 | 2026-09-01 23:38:02 | 43.29458 | 22.04731 | 100° | 55km/h | 7333m | 5.9m/s | -20.6°C | 26.8% | 0hPa | 0V | 00:00:00 | 00:00:00 | 00:00:00 | |
| LZ4TU-5 | 2026-09-01 23:36:36 | 43.29799 | 22.02804 | 112° | 75km/h | 6878m | 4.7m/s | -16.6°C | 22.4% | 0hPa | 0V | 00:00:00 | 00:00:00 | 00:00:00 | |
| LZ4TU-5 | 2026-09-01 23:36:31 | 43.29812 | 22.02685 | 97° | 49km/h | 6857m | 5.5m/s | -16.4°C | 22.3% | 0hPa | 0V | 00:00:00 | 00:00:00 | 00:00:00 | |
| LZ4TU-5 | 2026-09-01 23:35:11 | 43.30063 | 22.01158 | 99° | 51km/h | 6445m | 4.1m/s | -13.7°C | 29.1% | 0hPa | 0V | 00:00:00 | 00:00:00 | 00:00:00 | |
| LZ4TU-5 | 2026-09-01 23:35:06 | 43.30062 | 22.01043 | 100° | 75km/h | 6425m | 3.4m/s | -13.7°C | 31.1% | 0hPa | 0V | 00:00:00 | 00:00:00 | 00:00:00 | |
| LZ4TU-5 | 2026-09-01 23:35:01 | 43.30089 | 22.00959 | 119° | 38km/h | 6397m | 4.1m/s | -13.4°C | 30.9% | 0hPa | 0V | 00:00:00 | 00:00:00 | 00:00:00 | |
| LZ4TU-5 | 2026-09-01 23:33:47 | 43.30299 | 21.99579 | 127° | 44km/h | 6016m | 5.8m/s | -10.1°C | 27.6% | 0hPa | 0V | 00:00:00 | 00:00:00 | 00:00:00 | |
| LZ4TU-5 | 2026-09-01 23:33:42 | 43.30311 | 21.99499 | 82° | 60km/h | 5991m | 4.7m/s | -9.9°C | 26.8% | 0hPa | 0V | 00:00:00 | 00:00:00 | 00:00:00 | |
| LZ4TU-5 | 2026-09-01 23:32:29 | 43.30582 | 21.98264 | 82° | 51km/h | 5604m | 3.9m/s | -7.7°C | 7.4% | 0hPa | 0V | 00:00:00 | 00:00:00 | 00:00:00 | |
| LZ4TU-5 | 2026-09-01 23:32:25 | 43.30595 | 21.98205 | 127° | 49km/h | 5575m | 6.0m/s | -7.6°C | 7.7% | 0hPa | 0V | 00:00:00 | 00:00:00 | 00:00:00 | |
| LZ4TU-5 | 2026-09-01 23:31:09 | 43.30888 | 21.97121 | 108° | 37km/h | 5154m | 6.1m/s | -5.0°C | 8.5% | 0hPa | 0V | 00:00:00 | 00:00:00 | 00:00:00 | |
| LZ4TU-5 | 2026-09-01 23:31:04 | 43.30894 | 21.97052 | 93° | 49km/h | 5139m | 5.3m/s | -5.0°C | 9.4% | 0hPa | 0V | 00:00:00 | 00:00:00 | 00:00:00 | |
| LZ4TU-5 | 2026-09-01 23:29:18 | 43.31120 | 21.95606 | 131° | 24km/h | 4545m | 3.9m/s | -1.9°C | 14.8% | 0hPa | 0V | 00:00:00 | 00:00:00 | 00:00:00 | |
| LZ4TU-5 | 2026-09-01 23:29:13 | 43.31124 | 21.95541 | 72° | 49km/h | 4516m | 5.1m/s | -1.7°C | 15.3% | 0hPa | 0V | 00:00:00 | 00:00:00 | 00:00:00 | |
| LZ4TU-5 | 2026-09-01 23:27:55 | 43.30918 | 21.94370 | 84° | 58km/h | 4133m | 4.0m/s | -1.3°C | 85.1% | 0hPa | 0V | 00:00:00 | 00:00:00 | 00:00:00 | |
| LZ4TU-5 | 2026-09-01 23:27:50 | 43.30884 | 21.94277 | 58° | 66km/h | 4111m | 4.0m/s | -1.1°C | 85.3% | 0hPa | 0V | 00:00:00 | 00:00:00 | 00:00:00 | |
| LZ4TU-5 | 2026-09-01 23:26:41 | 43.30655 | 21.93215 | 63° | 27km/h | 3784m | 2.8m/s | 1.5°C | 80.4% | 0hPa | 0V | 00:00:00 | 00:00:00 | 00:00:00 |